»·PEaware :: N612AB KSAN-KSNA

N612AB :: KSAN-KSNA

FLIGHT INFORMATION

Flight Status: Arrived
Operator: Privately registered:
United States
More flights under this callsign
Pilot: Gregory B. (32299)
Aircraft: CESSNA 172 SKYHAWK
(C172)
More flights by this aircraft type
Origin: KSAN San Diego Intl-Lindbergh
United States
Destination: KSNA John Wayne-Orange Co
United States
More flights between these airports :: More routes between these airports
Route:
File this flight plan on PilotEdge
Remarks:
Altitude:
(Current/Filed)
6,500ft
Speed:
(Current/Filed)
120kts
Departed: 30-Nov-20 04:30 PM
Arrived: 30-Nov-20 05:20 PM
Distance/Time
Traveled:
66nm/0:50
Distance/Time
To Go:
Arrived

Flight Plot

Page will automatically refresh every two minutes.


Map Options




Map Legend


Flown Route
Filed Route
Departure Airport
Arrival Airport
Navaid (VOR, NDB)
Fix

Horizontal Profiles

Position Reports

Time Latitude Longitude Heading Altitude Ground
Speed
30-Nov-20 16:11 32.734354 -117.185098 286 21ft 0kts
30-Nov-20 16:12 32.734354 -117.185098 286 21ft 0kts
30-Nov-20 16:13 32.734354 -117.185098 286 21ft 0kts
30-Nov-20 16:14 32.734354 -117.185098 286 21ft 0kts
30-Nov-20 16:15 32.734354 -117.185098 286 21ft 0kts
30-Nov-20 16:16 32.734354 -117.185098 286 21ft 0kts
30-Nov-20 16:17 32.734354 -117.185098 286 21ft 0kts
30-Nov-20 16:18 32.734354 -117.185098 286 21ft 0kts
30-Nov-20 16:19 32.734354 -117.185098 286 21ft 0kts
30-Nov-20 16:20 32.734354 -117.185098 286 21ft 0kts
30-Nov-20 16:21 32.734354 -117.185098 286 21ft 0kts
30-Nov-20 16:22 32.734354 -117.185098 286 21ft 0kts
30-Nov-20 16:23 32.734235 -117.185613 155 21ft 3kts
30-Nov-20 16:24 32.732111 -117.178918 106 21ft 31kts
30-Nov-20 16:24 32.731902 -117.176657 107 21ft 0kts
30-Nov-20 16:26 32.731902 -117.176657 107 21ft 0kts
30-Nov-20 16:26 32.731902 -117.176657 107 21ft 0kts
30-Nov-20 16:27 32.731902 -117.176657 107 21ft 0kts
30-Nov-20 16:29 32.730887 -117.175474 140 21ft 10kts
30-Nov-20 16:29 32.732908 -117.188053 288 353ft 74kts
30-Nov-20 16:30 32.720762 -117.207502 222 1262ft 84kts
30-Nov-20 16:31 32.699662 -117.222415 215 1956ft 104kts
30-Nov-20 16:32 32.685071 -117.242993 300 1865ft 77kts
30-Nov-20 16:33 32.698477 -117.260958 319 1866ft 85kts
30-Nov-20 16:34 32.719624 -117.282899 325 1856ft 108kts
30-Nov-20 16:35 32.748488 -117.285169 327 1923ft 105kts
30-Nov-20 16:36 32.759282 -117.318952 287 1778ft 111kts
30-Nov-20 16:37 32.777743 -117.342274 348 1725ft 107kts
30-Nov-20 16:38 32.807933 -117.342158 6 1738ft 110kts
30-Nov-20 16:39 32.837183 -117.330216 352 1657ft 118kts
30-Nov-20 16:40 32.867072 -117.341480 333 1711ft 113kts
30-Nov-20 16:41 32.895444 -117.358440 334 1720ft 114kts
30-Nov-20 16:42 32.923138 -117.377726 330 1665ft 116kts
30-Nov-20 16:43 32.951562 -117.396854 330 1685ft 118kts
30-Nov-20 16:44 32.980198 -117.416427 330 1778ft 121kts
30-Nov-20 16:45 33.005437 -117.439283 321 2421ft 101kts
30-Nov-20 16:46 33.027119 -117.459488 328 3080ft 102kts
30-Nov-20 16:47 33.052091 -117.473318 342 3771ft 96kts
30-Nov-20 16:48 33.078903 -117.479847 351 4360ft 98kts
30-Nov-20 16:49 33.102072 -117.494894 312 4894ft 99kts
30-Nov-20 16:50 33.122935 -117.521029 317 4772ft 109kts
30-Nov-20 16:51 33.140793 -117.544340 305 5510ft 88kts
30-Nov-20 16:52 33.157282 -117.566610 301 6076ft 89kts
30-Nov-20 16:53 33.171127 -117.592117 305 6475ft 101kts
30-Nov-20 16:54 33.190038 -117.620456 309 6465ft 113kts
30-Nov-20 16:55 33.210615 -117.649145 310 6465ft 114kts
30-Nov-20 16:56 33.232021 -117.677431 311 6468ft 114kts
30-Nov-20 16:57 33.253342 -117.705713 310 6469ft 114kts
30-Nov-20 16:58 33.274456 -117.734372 310 6470ft 114kts
30-Nov-20 16:59 33.296054 -117.760725 333 6472ft 116kts
30-Nov-20 17:00 33.325003 -117.745300 31 6470ft 119kts
30-Nov-20 17:01 33.355061 -117.728753 12 5762ft 116kts
30-Nov-20 17:02 33.385258 -117.715260 13 4781ft 114kts
30-Nov-20 17:03 33.412543 -117.706829 11 4417ft 95kts
30-Nov-20 17:04 33.437667 -117.697577 14 3960ft 94kts
30-Nov-20 17:05 33.463073 -117.692628 357 3448ft 92kts
30-Nov-20 17:06 33.487698 -117.700150 346 2939ft 92kts
30-Nov-20 17:07 33.510717 -117.714011 318 2480ft 96kts
30-Nov-20 17:08 33.530696 -117.733679 312 2308ft 92kts
30-Nov-20 17:09 33.550599 -117.753123 322 2141ft 92kts
30-Nov-20 17:10 33.572103 -117.769930 316 1893ft 93kts
30-Nov-20 17:11 33.591576 -117.789693 320 1501ft 92kts
30-Nov-20 17:12 33.611886 -117.808184 317 1259ft 92kts
30-Nov-20 17:13 33.631521 -117.827678 318 1054ft 91kts
30-Nov-20 17:14 33.652435 -117.844951 328 978ft 91kts
30-Nov-20 17:15 33.674482 -117.833404 35 946ft 79kts
30-Nov-20 17:16 33.690265 -117.833840 293 897ft 65kts
30-Nov-20 17:17 33.692636 -117.851940 244 606ft 55kts
30-Nov-20 17:18 33.680561 -117.863882 209 71ft 54kts
30-Nov-20 17:19 33.676863 -117.865578 114 60ft 0kts
30-Nov-20 17:20 33.675499 -117.865087 173 60ft 10kts

Navigation Log

Ident Type
Flight plan parsing failed, navigation log unavailable